Arthur, Nebraska
Current Conditions -  °F | °C
As of 11:55 PM on Friday 28 Nov 2014 (Local Time) from KOGA Reporting Station
Clear Clear  
Wind Chill: 33°   Ceiling: Unl
Heat Index: 33°   Visibility: 10mi
Dew Point: 26°   Wind: 0mph
Humidity: 75%   Direction: NA
Pressure: 29.67"   Gusts: NA
Location:  41.57°N, 101.69°W
Report Text: KOGA 290655Z AUTO 00000KT 10SM CLR 00/M04 A2967 RMK AO2 T00031036 401981038
Loading
Personal Weather Stations






























Interactive Weather Map New forecast layout! Learn more

10-Day Weather Forecast

Advertisements
Track Severe Weather on mobile